createdAt,value
2018-12-27T00:02:08.051Z,6.93
2018-12-27T00:04:48.999Z,6.43
2018-12-27T00:07:29.977Z,7.37
2018-12-27T00:10:10.696Z,5.70
2018-12-27T00:12:39.597Z,6.20
2018-12-27T00:15:08.541Z,6.03
2018-12-27T00:20:50.506Z,6.10
2018-12-27T00:23:31.827Z,7.33
2018-12-27T00:26:13.087Z,6.67
2018-12-27T00:28:53.971Z,5.37
2018-12-27T00:34:26.165Z,6.00
2018-12-27T00:37:06.857Z,7.30
2018-12-27T00:39:47.592Z,6.30
2018-12-27T00:42:28.469Z,6.03
2018-12-27T00:45:09.148Z,6.80
2018-12-27T00:47:53.937Z,6.93
2018-12-27T00:50:34.877Z,6.53
2018-12-27T00:53:03.942Z,7.23
2018-12-27T00:56:06.493Z,5.07
2018-12-27T00:58:34.716Z,8.07
2018-12-27T01:01:15.491Z,7.53
2018-12-27T01:03:56.258Z,6.30
2018-12-27T01:06:37.220Z,7.03
2018-12-27T01:09:06.383Z,6.40
2018-12-27T01:12:06.752Z,6.97
2018-12-27T01:14:37.503Z,6.10
2018-12-27T01:17:06.623Z,6.47
2018-12-27T01:20:08.817Z,6.37
2018-12-27T01:22:37.662Z,5.60
2018-12-27T01:25:06.731Z,5.63
2018-12-27T01:27:35.762Z,6.27
2018-12-27T01:30:36.002Z,6.07
2018-12-27T01:33:06.310Z,6.17
2018-12-27T01:35:47.418Z,6.33
2018-12-27T01:38:28.409Z,5.70
2018-12-27T01:41:09.450Z,5.93
2018-12-27T01:43:38.504Z,5.33
2018-12-27T01:46:41.091Z,5.37
2018-12-27T01:49:09.793Z,5.80
2018-12-27T01:51:50.614Z,6.60
2018-12-27T01:54:31.777Z,5.77
2018-12-27T01:57:12.341Z,5.90
2018-12-27T01:59:53.233Z,5.80
2018-12-27T02:02:33.958Z,5.67
2018-12-27T02:05:15.279Z,5.67
2018-12-27T02:11:01.410Z,6.13
2018-12-27T02:13:46.342Z,6.43
2018-12-27T02:16:27.723Z,5.80
2018-12-27T02:19:09.161Z,6.17
2018-12-27T02:21:50.326Z,5.73
2018-12-27T02:24:31.193Z,6.20
2018-12-27T02:27:11.920Z,5.97
2018-12-27T02:29:52.534Z,5.70
2018-12-27T02:32:33.296Z,6.73
2018-12-27T02:35:17.434Z,7.13
2018-12-27T02:37:58.494Z,6.47
2018-12-27T02:40:39.582Z,5.13
2018-12-27T02:43:08.605Z,5.53
2018-12-27T02:45:37.621Z,6.00
2018-12-27T02:48:40.854Z,5.60
2018-12-27T02:51:08.350Z,5.33
2018-12-27T02:53:48.986Z,5.37
2018-12-27T02:56:29.624Z,5.17
2018-12-27T02:59:10.742Z,5.03
2018-12-27T03:01:51.603Z,5.53
2018-12-27T03:04:30.904Z,4.43
2018-12-27T03:07:22.045Z,4.90
2018-12-27T03:10:03.330Z,5.17
2018-12-27T03:12:44.375Z,5.23
2018-12-27T03:15:25.353Z,6.80
2018-12-27T03:18:05.952Z,6.13
2018-12-27T03:20:35.010Z,5.30
2018-12-27T03:23:45.522Z,5.50
2018-12-27T03:26:24.959Z,5.33
2018-12-27T03:28:55.954Z,5.27
2018-12-27T03:31:37.024Z,5.97
2018-12-27T03:34:06.049Z,5.30
2018-12-27T03:37:06.265Z,5.73
2018-12-27T03:39:44.301Z,4.83
2018-12-27T03:42:25.170Z,5.20
2018-12-27T03:45:06.181Z,5.33
2018-12-27T03:47:35.197Z,4.97
2018-12-27T03:50:53.848Z,6.10
2018-12-27T03:53:06.560Z,5.20
2018-12-27T03:55:47.825Z,5.20
2018-12-27T03:58:28.758Z,5.20
2018-12-27T04:01:10.810Z,6.77
2018-12-27T04:03:51.985Z,6.17
2018-12-27T04:06:33.138Z,5.93
2018-12-27T04:09:13.916Z,4.53
2018-12-27T04:11:56.001Z,6.47
2018-12-27T04:14:36.833Z,6.17
2018-12-27T04:17:05.705Z,4.50
2018-12-27T04:19:34.578Z,5.10
2018-12-27T04:22:37.692Z,4.13
2018-12-27T04:25:08.613Z,4.23
2018-12-27T04:30:36.534Z,5.23
2018-12-27T04:33:08.350Z,5.57
2018-12-27T04:35:56.859Z,5.80
2018-12-27T04:38:45.268Z,3.40
2018-12-27T04:41:26.266Z,5.97
2018-12-27T04:44:06.889Z,6.63
2018-12-27T04:46:36.530Z,6.37
2018-12-27T04:49:05.464Z,5.97
2018-12-27T04:51:53.664Z,5.63
2018-12-27T04:54:41.921Z,5.93
2018-12-27T04:57:10.833Z,6.27
2018-12-27T04:59:51.870Z,5.70
2018-12-27T05:02:32.738Z,8.00
2018-12-27T05:05:13.787Z,6.00
2018-12-27T05:07:54.688Z,4.97
2018-12-27T05:10:36.580Z,5.57
2018-12-27T05:13:06.353Z,5.60
2018-12-27T05:15:35.230Z,7.50
2018-12-27T05:18:37.748Z,5.73
2018-12-27T05:21:06.569Z,6.57
2018-12-27T05:23:35.493Z,6.67
2018-12-27T05:26:35.313Z,6.03
2018-12-27T05:29:25.427Z,5.70
2018-12-27T05:31:56.605Z,6.47
2018-12-27T05:34:37.325Z,7.07
2018-12-27T05:37:06.297Z,6.23
2018-12-27T05:39:35.156Z,5.50
2018-12-27T05:42:04.097Z,5.93
2018-12-27T05:44:32.982Z,6.17
2018-12-27T05:51:10.513Z,7.03
2018-12-27T05:53:40.531Z,6.40
2018-12-27T05:56:09.413Z,5.83
2018-12-27T05:59:11.026Z,5.80
2018-12-27T06:01:39.905Z,6.30
2018-12-27T06:04:08.821Z,5.97
2018-12-27T06:07:10.340Z,6.70
2018-12-27T06:09:42.839Z,5.67
2018-12-27T06:12:11.749Z,5.87
2018-12-27T06:15:13.006Z,6.00
2018-12-27T06:18:03.879Z,5.00
2018-12-27T06:20:30.781Z,5.63
2018-12-27T06:23:19.022Z,5.47
2018-12-27T06:25:59.833Z,5.77
2018-12-27T06:28:41.140Z,6.07
2018-12-27T06:31:10.104Z,5.40
2018-12-27T06:33:58.273Z,6.40
2018-12-27T06:36:39.387Z,7.50
2018-12-27T06:39:20.610Z,6.83
2018-12-27T06:42:02.203Z,5.37
2018-12-27T06:48:02.582Z,4.77
2018-12-27T06:50:43.918Z,5.93
2018-12-27T06:53:25.362Z,6.07
2018-12-27T06:56:06.009Z,6.77
2018-12-27T06:58:37.823Z,4.57
2018-12-27T07:01:38.763Z,5.03
2018-12-27T07:04:07.681Z,5.87
2018-12-27T07:06:48.395Z,5.87
2018-12-27T07:09:29.086Z,5.80
2018-12-27T07:12:09.693Z,12.60
2018-12-27T07:14:50.256Z,9.00
2018-12-27T07:17:31.218Z,6.07
2018-12-27T07:20:12.404Z,5.07
2018-12-27T07:22:53.105Z,5.77
2018-12-27T07:25:34.621Z,5.60
2018-12-27T07:28:15.577Z,5.00
2018-12-27T07:30:56.794Z,5.97
2018-12-27T07:33:37.940Z,4.27
2018-12-27T07:36:18.654Z,4.43
2018-12-27T07:38:59.291Z,4.20
2018-12-27T07:41:40.018Z,3.77
2018-12-27T07:44:20.754Z,4.30
2018-12-27T07:47:01.436Z,5.63
2018-12-27T07:49:42.645Z,6.30
2018-12-27T07:52:23.505Z,6.70
2018-12-27T07:58:09.703Z,6.93
2018-12-27T08:00:50.553Z,6.00
2018-12-27T08:03:38.925Z,6.20
2018-12-27T08:06:19.867Z,6.00
2018-12-27T08:09:00.926Z,6.40
2018-12-27T08:11:42.122Z,5.93
2018-12-27T08:14:23.281Z,5.87
2018-12-27T08:17:04.346Z,5.00
2018-12-27T08:19:45.347Z,5.73
2018-12-27T08:22:26.049Z,5.53
2018-12-27T08:25:06.936Z,5.77
2018-12-27T08:27:48.137Z,7.53
2018-12-27T08:30:29.228Z,5.97
2018-12-27T08:33:09.770Z,6.63
2018-12-27T08:35:38.702Z,6.60
2018-12-27T08:38:40.836Z,6.20
2018-12-27T08:41:09.598Z,5.10
2018-12-27T08:43:38.479Z,5.70
2018-12-27T08:46:40.749Z,7.37
2018-12-27T08:49:28.343Z,3.60
2018-12-27T08:51:59.460Z,5.50
2018-12-27T08:54:41.202Z,5.17
2018-12-27T08:57:22.078Z,4.83
2018-12-27T09:00:03.322Z,6.07
2018-12-27T09:02:44.287Z,6.03
2018-12-27T09:05:25.566Z,5.87
2018-12-27T09:11:16.130Z,6.33
2018-12-27T09:13:56.770Z,6.27
2018-12-27T09:16:37.756Z,4.70
2018-12-27T09:19:18.708Z,5.53
2018-12-27T09:22:00.021Z,6.33
2018-12-27T09:24:41.340Z,6.27
2018-12-27T09:27:22.842Z,4.00
2018-12-27T09:30:03.941Z,6.10
2018-12-27T09:32:43.141Z,6.00
2018-12-27T09:35:12.033Z,6.50
2018-12-27T09:38:14.536Z,5.77
2018-12-27T09:40:43.441Z,6.57
2018-12-27T09:43:24.115Z,4.93
2018-12-27T09:46:05.088Z,3.47
2018-12-27T09:48:46.146Z,5.20
2018-12-27T09:51:26.847Z,5.87
2018-12-27T09:54:08.017Z,5.50
2018-12-27T09:56:48.768Z,5.10
2018-12-27T09:59:29.750Z,5.37
2018-12-27T10:02:10.288Z,5.03
2018-12-27T10:04:39.241Z,7.13
2018-12-27T10:07:41.391Z,5.57
2018-12-27T10:10:28.750Z,4.97
2018-12-27T10:13:00.363Z,6.30
2018-12-27T10:15:41.534Z,6.33
2018-12-27T10:18:22.952Z,5.27
2018-12-27T10:21:03.983Z,4.73
2018-12-27T10:23:45.230Z,5.30
2018-12-27T10:26:26.337Z,5.10
2018-12-27T10:29:07.674Z,5.23
2018-12-27T10:31:48.397Z,5.70
2018-12-27T10:34:29.202Z,5.80
2018-12-27T10:37:12.429Z,6.07
2018-12-27T10:39:41.424Z,6.43
2018-12-27T10:42:41.437Z,6.23
2018-12-27T10:48:19.898Z,5.03
2018-12-27T10:51:01.197Z,5.37
2018-12-27T10:53:42.010Z,5.70
2018-12-27T10:56:23.431Z,6.03
2018-12-27T10:59:04.353Z,5.43
2018-12-27T11:01:45.489Z,4.97
2018-12-27T11:04:26.436Z,5.43
2018-12-27T11:07:07.577Z,5.10
2018-12-27T11:09:48.938Z,5.37
2018-12-27T11:12:30.423Z,6.40
2018-12-27T11:15:11.113Z,5.23
2018-12-27T11:17:51.932Z,5.73
2018-12-27T11:20:31.077Z,6.27
2018-12-27T11:23:12.343Z,6.13
2018-12-27T11:25:53.319Z,6.20
2018-12-27T11:28:34.363Z,5.93
2018-12-27T11:31:15.629Z,5.10
2018-12-27T11:33:56.696Z,5.43
2018-12-27T11:36:37.785Z,3.87
2018-12-27T11:39:18.838Z,4.10
2018-12-27T11:41:59.672Z,5.30
2018-12-27T11:44:40.293Z,4.77
2018-12-27T11:47:09.176Z,3.73
2018-12-27T11:55:53.794Z,4.60
2018-12-27T11:58:22.739Z,4.07
2018-12-27T12:01:25.379Z,5.00
2018-12-27T12:03:54.174Z,4.77
2018-12-27T12:06:35.267Z,4.37
2018-12-27T12:09:16.015Z,4.33
2018-12-27T12:11:57.017Z,5.40
2018-12-27T12:14:37.964Z,4.53
2018-12-27T12:17:18.620Z,4.07
2018-12-27T12:19:59.587Z,4.43
2018-12-27T12:22:40.740Z,4.77
2018-12-27T12:25:22.171Z,4.60
2018-12-27T12:28:02.896Z,4.87
2018-12-27T12:30:44.310Z,4.97
2018-12-27T12:33:25.062Z,4.10
2018-12-27T12:36:10.674Z,5.10
2018-12-27T12:38:36.726Z,4.00
2018-12-27T12:41:05.654Z,4.60
2018-12-27T12:43:34.626Z,4.00
2018-12-27T12:46:36.742Z,4.70
2018-12-27T12:49:26.709Z,4.10
2018-12-27T12:51:55.513Z,4.57
2018-12-27T12:54:36.543Z,3.93
2018-12-27T12:57:05.527Z,5.30
2018-12-27T12:59:34.427Z,5.13
2018-12-27T13:07:58.401Z,5.07
2018-12-27T13:10:39.577Z,4.93
2018-12-27T13:13:20.313Z,4.60
2018-12-27T13:16:01.370Z,4.73
2018-12-27T13:18:47.241Z,5.40
2018-12-27T13:21:24.595Z,5.00
2018-12-27T13:24:05.243Z,4.80
2018-12-27T13:26:34.217Z,4.93
2018-12-27T13:29:22.410Z,5.77
2018-12-27T13:32:03.110Z,4.73
2018-12-27T13:34:44.438Z,5.10
2018-12-27T13:37:25.233Z,5.50
2018-12-27T13:40:05.885Z,4.60
2018-12-27T13:42:34.806Z,5.87
2018-12-27T13:45:34.537Z,4.97
2018-12-27T13:48:05.969Z,5.60
2018-12-27T13:50:46.896Z,5.33
2018-12-27T13:53:28.687Z,6.13
2018-12-27T13:56:10.471Z,5.67
2018-12-27T13:58:51.363Z,4.77
2018-12-27T14:01:32.100Z,4.27
2018-12-27T14:04:12.791Z,5.47
2018-12-27T14:06:53.580Z,6.03
2018-12-27T14:09:34.553Z,5.67
2018-12-27T14:12:15.959Z,5.40
2018-12-27T14:14:56.711Z,4.37
2018-12-27T14:17:37.865Z,5.97
2018-12-27T14:22:36.053Z,5.47
2018-12-27T14:25:05.062Z,5.00
2018-12-27T14:28:05.010Z,4.97
2018-12-27T14:30:36.339Z,5.50
2018-12-27T14:33:17.365Z,5.63
2018-12-27T14:35:58.820Z,5.67
2018-12-27T14:38:39.773Z,5.57
2018-12-27T14:41:20.724Z,5.57
2018-12-27T14:44:01.829Z,5.80
2018-12-27T14:46:42.708Z,5.37
2018-12-27T14:49:23.526Z,4.97
2018-12-27T14:52:04.198Z,4.30
2018-12-27T14:54:45.330Z,5.13
2018-12-27T14:57:26.398Z,5.63
2018-12-27T15:00:07.365Z,5.43
2018-12-27T15:02:36.340Z,5.73
2018-12-27T15:05:36.385Z,5.50
2018-12-27T15:08:07.270Z,4.90
2018-12-27T15:10:48.749Z,4.77
2018-12-27T15:13:29.810Z,4.80
2018-12-27T15:16:11.250Z,6.73
2018-12-27T15:18:51.866Z,6.03
2018-12-27T15:21:33.205Z,5.03
2018-12-27T15:27:25.198Z,5.63
2018-12-27T15:30:05.834Z,4.80
2018-12-27T15:32:46.733Z,5.20
2018-12-27T15:35:28.036Z,3.43
2018-12-27T15:38:09.118Z,4.17
2018-12-27T15:40:51.767Z,4.50
2018-12-27T15:43:32.630Z,3.13
2018-12-27T15:46:13.660Z,4.60
2018-12-27T15:48:54.595Z,3.80
2018-12-27T15:51:35.472Z,3.50
2018-12-27T15:57:21.326Z,2.27
2018-12-27T16:00:02.301Z,3.33
2018-12-27T16:02:43.697Z,3.20
2018-12-27T16:05:25.032Z,3.57
2018-12-27T16:08:05.955Z,2.93
2018-12-27T16:10:35.349Z,3.87
2018-12-27T16:13:35.439Z,3.73
2018-12-27T16:16:06.994Z,3.97
2018-12-27T16:18:47.594Z,4.30
2018-12-27T16:21:28.561Z,2.67
2018-12-27T16:24:09.879Z,3.43
2018-12-27T16:26:50.934Z,4.10
2018-12-27T16:29:32.343Z,3.30
2018-12-27T16:32:17.817Z,3.47
2018-12-27T16:34:58.688Z,3.93
2018-12-27T16:37:39.603Z,3.97
2018-12-27T16:40:09.151Z,3.70
2018-12-27T16:45:43.802Z,3.35
2018-12-27T16:48:24.890Z,3.70
2018-12-27T16:51:05.772Z,4.20
2018-12-27T16:53:48.270Z,2.80
2018-12-27T16:56:29.118Z,4.00
2018-12-27T17:02:07.565Z,2.70
2018-12-27T17:05:09.749Z,3.13
2018-12-27T17:07:38.626Z,3.10
2018-12-27T17:10:19.971Z,2.10
2018-12-27T17:13:00.692Z,2.35
2018-12-27T17:15:42.154Z,2.33
2018-12-27T17:18:11.098Z,2.63
2018-12-27T17:21:13.345Z,3.35
2018-12-27T17:23:43.018Z,2.58
2018-12-27T17:26:24.265Z,2.95
2018-12-27T17:29:05.137Z,2.83
2018-12-27T17:31:34.012Z,2.47
2018-12-27T17:34:34.464Z,2.90
2018-12-27T17:37:12.390Z,2.63
2018-12-27T17:39:53.604Z,2.87
2018-12-27T17:45:06.051Z,2.67
2018-12-27T17:47:35.106Z,2.80
2018-12-27T17:50:37.522Z,2.40
2018-12-27T17:59:07.835Z,2.27
2018-12-27T18:01:55.996Z,2.77
2018-12-27T18:07:49.366Z,2.63
2018-12-27T18:16:54.964Z,1.90
2018-12-27T18:19:35.667Z,3.00
2018-12-27T18:22:16.482Z,2.40
2018-12-27T18:24:57.388Z,3.60
2018-12-27T18:27:39.078Z,2.98
2018-12-27T18:30:10.165Z,2.37
2018-12-27T18:35:50.627Z,4.23
2018-12-27T18:38:32.230Z,3.17
2018-12-27T18:41:13.768Z,2.23
2018-12-27T18:43:54.745Z,2.00
2018-12-27T18:46:35.531Z,2.20
2018-12-27T18:49:04.691Z,2.50
2018-12-27T18:57:35.717Z,2.08
2018-12-27T19:00:07.636Z,2.40
2018-12-27T19:02:41.969Z,2.42
2018-12-27T19:05:08.233Z,2.10
2018-12-27T19:08:14.202Z,1.83
2018-12-27T19:10:39.399Z,3.17
2018-12-27T19:13:20.300Z,2.43
2018-12-27T19:16:01.422Z,2.60
2018-12-27T19:18:42.370Z,2.13
2018-12-27T19:21:23.930Z,2.05
2018-12-27T19:24:05.212Z,3.20
2018-12-27T19:26:46.510Z,3.20
2018-12-27T19:32:40.648Z,2.10
2018-12-27T19:35:21.527Z,2.23
2018-12-27T19:38:02.761Z,2.80
2018-12-27T19:40:44.160Z,2.77
2018-12-27T19:43:26.059Z,3.00
2018-12-27T19:46:07.274Z,2.60
2018-12-27T19:48:49.008Z,2.40
2018-12-27T19:51:30.732Z,2.57
2018-12-27T19:54:11.972Z,2.70
2018-12-27T19:57:42.543Z,3.50
2018-12-27T19:59:55.485Z,3.17
2018-12-27T20:02:36.347Z,2.52
2018-12-27T20:05:17.088Z,3.33
2018-12-27T20:07:59.491Z,3.83
2018-12-27T20:10:40.450Z,3.73
2018-12-27T20:13:09.704Z,3.20
2018-12-27T20:18:47.261Z,3.30
2018-12-27T20:24:34.050Z,2.30
2018-12-27T20:27:15.334Z,2.92
2018-12-27T20:29:57.979Z,3.97
2018-12-27T20:32:38.953Z,2.97
2018-12-27T20:35:09.767Z,5.35
2018-12-27T20:41:18.475Z,4.60
2018-12-27T20:44:00.155Z,3.95
2018-12-27T20:52:57.382Z,4.67
2018-12-27T20:55:36.983Z,2.90
2018-12-27T20:58:06.117Z,3.20
2018-12-27T21:00:35.817Z,3.00
2018-12-27T21:03:05.039Z,3.37
2018-12-27T21:06:05.411Z,4.08
2018-12-27T21:08:36.306Z,3.90
2018-12-27T21:11:22.685Z,3.30
2018-12-27T21:17:08.963Z,3.17
2018-12-27T21:19:51.843Z,3.83
2018-12-27T21:22:33.183Z,3.08
2018-12-27T21:25:14.802Z,2.92
2018-12-27T21:27:55.622Z,3.35
2018-12-27T21:30:36.924Z,4.97
2018-12-27T21:33:06.278Z,3.92
2018-12-27T21:39:10.090Z,3.67
2018-12-27T21:41:38.470Z,2.85
2018-12-27T21:44:07.787Z,2.77
2018-12-27T21:47:15.260Z,3.77
2018-12-27T21:49:56.415Z,4.87
2018-12-27T21:52:37.633Z,5.67
2018-12-27T21:55:06.941Z,3.95
2018-12-27T21:57:36.238Z,4.42
2018-12-27T22:00:08.360Z,3.65
2018-12-27T22:02:37.450Z,3.27
2018-12-27T22:05:06.777Z,3.90
2018-12-27T22:07:35.931Z,3.65
2018-12-27T22:10:06.978Z,3.35
2018-12-27T22:12:37.151Z,5.00
2018-12-27T22:15:06.525Z,4.12
2018-12-27T22:17:35.960Z,4.00
2018-12-27T22:20:38.072Z,3.83
2018-12-27T22:23:07.055Z,4.10
2018-12-27T22:25:36.171Z,3.67
2018-12-27T22:28:05.278Z,3.20
2018-12-27T22:33:41.275Z,3.30
2018-12-27T22:36:10.426Z,3.60
2018-12-27T22:39:12.937Z,3.60
2018-12-27T22:42:12.269Z,3.67
2018-12-27T22:44:53.321Z,4.35
2018-12-27T22:51:01.394Z,4.30
2018-12-27T22:53:42.872Z,4.60
2018-12-27T22:56:23.620Z,4.45
2018-12-27T22:59:02.991Z,4.53
2018-12-27T23:01:44.134Z,4.17
2018-12-27T23:04:25.374Z,4.28
2018-12-27T23:07:06.892Z,5.12
2018-12-27T23:09:48.369Z,4.42
2018-12-27T23:12:29.115Z,4.45
2018-12-27T23:18:01.513Z,4.15
2018-12-27T23:20:42.836Z,4.28
2018-12-27T23:23:11.817Z,3.62
2018-12-27T23:32:13.143Z,4.55
2018-12-27T23:34:54.191Z,4.65
2018-12-27T23:37:35.066Z,3.87
2018-12-27T23:40:16.130Z,3.77
2018-12-27T23:42:56.934Z,4.28
2018-12-27T23:45:37.671Z,4.83
2018-12-27T23:48:06.583Z,4.67
2018-12-27T23:50:35.590Z,4.33
2018-12-27T23:53:46.512Z,4.03
2018-12-27T23:56:06.333Z,4.25
2018-12-27T23:58:35.289Z,3.75
